sensor_id;sensor_type;location;lat;lon;timestamp;temperature;humidity
23411;DHT22;11878;51.774;7.220;2023-05-24T00:02:02;9.00;99.90
23411;DHT22;11878;51.774;7.220;2023-05-24T00:05:04;8.90;99.90
23411;DHT22;11878;51.774;7.220;2023-05-24T00:08:08;9.00;99.90
23411;DHT22;11878;51.774;7.220;2023-05-24T00:11:10;9.00;99.90
23411;DHT22;11878;51.774;7.220;2023-05-24T00:14:12;8.90;99.90
23411;DHT22;11878;51.774;7.220;2023-05-24T00:17:14;8.90;99.90
23411;DHT22;11878;51.774;7.220;2023-05-24T00:20:15;9.00;99.90
23411;DHT22;11878;51.774;7.220;2023-05-24T00:23:17;8.90;99.90
23411;DHT22;11878;51.774;7.220;2023-05-24T00:26:19;8.90;99.90
23411;DHT22;11878;51.774;7.220;2023-05-24T00:29:29;8.80;99.90
23411;DHT22;11878;51.774;7.220;2023-05-24T00:32:34;8.80;99.90
23411;DHT22;11878;51.774;7.220;2023-05-24T00:42:59;8.70;99.90
23411;DHT22;11878;51.774;7.220;2023-05-24T00:49:11;8.70;99.90
23411;DHT22;11878;51.774;7.220;2023-05-24T00:52:14;8.70;99.90
23411;DHT22;11878;51.774;7.220;2023-05-24T00:55:16;8.60;99.90
23411;DHT22;11878;51.774;7.220;2023-05-24T00:58:18;8.50;99.90
23411;DHT22;11878;51.774;7.220;2023-05-24T01:01:20;8.50;99.90
23411;DHT22;11878;51.774;7.220;2023-05-24T01:04:22;8.50;99.90
23411;DHT22;11878;51.774;7.220;2023-05-24T01:07:30;8.40;99.90
23411;DHT22;11878;51.774;7.220;2023-05-24T01:10:57;8.40;99.90
23411;DHT22;11878;51.774;7.220;2023-05-24T01:14:28;8.20;99.90
23411;DHT22;11878;51.774;7.220;2023-05-24T01:21:15;8.10;99.90
23411;DHT22;11878;51.774;7.220;2023-05-24T01:24:36;8.00;99.90
23411;DHT22;11878;51.774;7.220;2023-05-24T01:27:43;8.10;99.90
23411;DHT22;11878;51.774;7.220;2023-05-24T01:30:45;8.00;99.90
23411;DHT22;11878;51.774;7.220;2023-05-24T01:33:47;7.80;99.90
23411;DHT22;11878;51.774;7.220;2023-05-24T01:36:49;7.80;99.90
23411;DHT22;11878;51.774;7.220;2023-05-24T01:39:51;7.80;99.90
23411;DHT22;11878;51.774;7.220;2023-05-24T01:43:04;7.70;99.90
23411;DHT22;11878;51.774;7.220;2023-05-24T01:46:24;7.70;99.90
23411;DHT22;11878;51.774;7.220;2023-05-24T01:49:34;7.50;99.90
23411;DHT22;11878;51.774;7.220;2023-05-24T01:52:39;7.40;99.90
23411;DHT22;11878;51.774;7.220;2023-05-24T01:55:47;7.50;99.90
23411;DHT22;11878;51.774;7.220;2023-05-24T01:58:49;7.60;99.90
23411;DHT22;11878;51.774;7.220;2023-05-24T02:01:53;7.50;99.90
23411;DHT22;11878;51.774;7.220;2023-05-24T02:04:55;7.40;99.90
23411;DHT22;11878;51.774;7.220;2023-05-24T02:07:57;7.50;99.90
23411;DHT22;11878;51.774;7.220;2023-05-24T02:10:59;7.30;99.90
23411;DHT22;11878;51.774;7.220;2023-05-24T02:14:01;7.30;99.90
23411;DHT22;11878;51.774;7.220;2023-05-24T02:17:03;7.30;99.90
23411;DHT22;11878;51.774;7.220;2023-05-24T02:20:07;7.20;99.90
23411;DHT22;11878;51.774;7.220;2023-05-24T02:23:09;7.10;99.90
23411;DHT22;11878;51.774;7.220;2023-05-24T02:26:11;7.00;99.90
23411;DHT22;11878;51.774;7.220;2023-05-24T02:29:14;6.90;99.90
23411;DHT22;11878;51.774;7.220;2023-05-24T02:32:16;6.90;99.90
23411;DHT22;11878;51.774;7.220;2023-05-24T02:35:18;7.00;99.90
23411;DHT22;11878;51.774;7.220;2023-05-24T02:38:20;6.90;99.90
23411;DHT22;11878;51.774;7.220;2023-05-24T02:41:22;6.90;99.90
23411;DHT22;11878;51.774;7.220;2023-05-24T02:44:23;6.80;99.90
23411;DHT22;11878;51.774;7.220;2023-05-24T02:47:25;6.90;99.90
23411;DHT22;11878;51.774;7.220;2023-05-24T02:54:07;6.80;99.90
23411;DHT22;11878;51.774;7.220;2023-05-24T02:57:09;6.90;99.90
23411;DHT22;11878;51.774;7.220;2023-05-24T03:00:15;6.90;99.90
23411;DHT22;11878;51.774;7.220;2023-05-24T03:03:18;6.80;99.90
23411;DHT22;11878;51.774;7.220;2023-05-24T03:06:20;6.90;99.90
23411;DHT22;11878;51.774;7.220;2023-05-24T03:09:22;6.90;99.90
23411;DHT22;11878;51.774;7.220;2023-05-24T03:12:24;7.00;99.90
23411;DHT22;11878;51.774;7.220;2023-05-24T03:15:26;8.20;99.90
23411;DHT22;11878;51.774;7.220;2023-05-24T03:18:28;7.00;99.90
23411;DHT22;11878;51.774;7.220;2023-05-24T03:21:30;7.00;99.90
23411;DHT22;11878;51.774;7.220;2023-05-24T03:24:32;7.10;99.90
23411;DHT22;11878;51.774;7.220;2023-05-24T03:27:36;6.90;99.90
23411;DHT22;11878;51.774;7.220;2023-05-24T03:30:40;8.30;99.90
23411;DHT22;11878;51.774;7.220;2023-05-24T03:33:42;7.00;99.90
23411;DHT22;11878;51.774;7.220;2023-05-24T03:36:45;7.50;99.90
23411;DHT22;11878;51.774;7.220;2023-05-24T03:39:47;6.80;99.90
23411;DHT22;11878;51.774;7.220;2023-05-24T03:43:05;6.70;99.90
23411;DHT22;11878;51.774;7.220;2023-05-24T03:46:16;6.30;99.90
23411;DHT22;11878;51.774;7.220;2023-05-24T03:49:18;7.50;99.90
23411;DHT22;11878;51.774;7.220;2023-05-24T03:52:20;6.60;99.90
23411;DHT22;11878;51.774;7.220;2023-05-24T03:55:22;6.60;99.90
23411;DHT22;11878;51.774;7.220;2023-05-24T03:58:25;6.10;99.90
23411;DHT22;11878;51.774;7.220;2023-05-24T04:01:28;7.60;99.90
23411;DHT22;11878;51.774;7.220;2023-05-24T04:04:35;6.80;99.90
23411;DHT22;11878;51.774;7.220;2023-05-24T04:07:38;6.60;99.90
23411;DHT22;11878;51.774;7.220;2023-05-24T04:10:40;6.60;99.90
23411;DHT22;11878;51.774;7.220;2023-05-24T04:13:45;6.60;99.90
23411;DHT22;11878;51.774;7.220;2023-05-24T04:16:47;7.20;99.90
23411;DHT22;11878;51.774;7.220;2023-05-24T04:19:50;6.90;99.90
23411;DHT22;11878;51.774;7.220;2023-05-24T04:22:52;6.80;99.90
23411;DHT22;11878;51.774;7.220;2023-05-24T04:25:55;6.90;99.90
23411;DHT22;11878;51.774;7.220;2023-05-24T04:28:57;7.00;99.90
23411;DHT22;11878;51.774;7.220;2023-05-24T04:31:59;6.90;99.90
23411;DHT22;11878;51.774;7.220;2023-05-24T04:35:01;6.90;99.90
23411;DHT22;11878;51.774;7.220;2023-05-24T04:38:04;7.10;99.90
23411;DHT22;11878;51.774;7.220;2023-05-24T04:41:06;7.30;99.90
23411;DHT22;11878;51.774;7.220;2023-05-24T04:44:08;7.30;99.90
23411;DHT22;11878;51.774;7.220;2023-05-24T04:47:11;7.30;99.90
23411;DHT22;11878;51.774;7.220;2023-05-24T04:50:15;7.40;99.90
23411;DHT22;11878;51.774;7.220;2023-05-24T04:53:18;7.40;99.90
23411;DHT22;11878;51.774;7.220;2023-05-24T04:56:20;7.80;99.90
23411;DHT22;11878;51.774;7.220;2023-05-24T04:59:23;7.60;99.90
23411;DHT22;11878;51.774;7.220;2023-05-24T05:02:25;7.80;99.90
23411;DHT22;11878;51.774;7.220;2023-05-24T05:05:27;7.90;99.90
23411;DHT22;11878;51.774;7.220;2023-05-24T05:08:29;8.00;99.90
23411;DHT22;11878;51.774;7.220;2023-05-24T05:11:31;8.00;99.90
23411;DHT22;11878;51.774;7.220;2023-05-24T05:14:33;8.10;99.90
23411;DHT22;11878;51.774;7.220;2023-05-24T05:17:35;9.10;99.90
23411;DHT22;11878;51.774;7.220;2023-05-24T05:20:37;8.30;99.90
23411;DHT22;11878;51.774;7.220;2023-05-24T05:23:39;8.20;99.90
23411;DHT22;11878;51.774;7.220;2023-05-24T05:26:41;8.40;99.90
23411;DHT22;11878;51.774;7.220;2023-05-24T05:29:43;9.60;99.90
23411;DHT22;11878;51.774;7.220;2023-05-24T05:32:45;8.50;99.90
23411;DHT22;11878;51.774;7.220;2023-05-24T05:35:47;9.30;99.90
23411;DHT22;11878;51.774;7.220;2023-05-24T05:38:50;8.60;99.90
23411;DHT22;11878;51.774;7.220;2023-05-24T05:41:52;8.80;99.90
23411;DHT22;11878;51.774;7.220;2023-05-24T05:44:53;8.80;99.90
23411;DHT22;11878;51.774;7.220;2023-05-24T05:47:55;9.60;99.90
23411;DHT22;11878;51.774;7.220;2023-05-24T05:50:57;9.60;99.90
23411;DHT22;11878;51.774;7.220;2023-05-24T05:53:59;9.30;99.90
23411;DHT22;11878;51.774;7.220;2023-05-24T05:57:02;9.40;99.90
23411;DHT22;11878;51.774;7.220;2023-05-24T06:00:04;9.60;99.90
23411;DHT22;11878;51.774;7.220;2023-05-24T06:03:12;9.70;99.90
23411;DHT22;11878;51.774;7.220;2023-05-24T06:06:14;9.70;99.90
23411;DHT22;11878;51.774;7.220;2023-05-24T06:09:16;9.70;99.90
23411;DHT22;11878;51.774;7.220;2023-05-24T06:12:18;9.70;99.90
23411;DHT22;11878;51.774;7.220;2023-05-24T06:15:21;10.70;99.90
23411;DHT22;11878;51.774;7.220;2023-05-24T06:18:23;9.90;99.90
23411;DHT22;11878;51.774;7.220;2023-05-24T06:21:27;11.00;99.90
23411;DHT22;11878;51.774;7.220;2023-05-24T06:24:30;10.10;99.90
23411;DHT22;11878;51.774;7.220;2023-05-24T06:27:35;11.00;99.90
23411;DHT22;11878;51.774;7.220;2023-05-24T06:30:37;10.30;99.90
23411;DHT22;11878;51.774;7.220;2023-05-24T06:33:39;10.40;99.90
23411;DHT22;11878;51.774;7.220;2023-05-24T06:36:47;11.30;99.90
23411;DHT22;11878;51.774;7.220;2023-05-24T06:39:52;11.80;99.90
23411;DHT22;11878;51.774;7.220;2023-05-24T06:42:54;11.40;99.90
23411;DHT22;11878;51.774;7.220;2023-05-24T06:45:56;10.80;99.90
23411;DHT22;11878;51.774;7.220;2023-05-24T06:48:58;11.00;99.90
23411;DHT22;11878;51.774;7.220;2023-05-24T06:52:00;10.90;99.90
23411;DHT22;11878;51.774;7.220;2023-05-24T06:55:02;11.40;99.90
23411;DHT22;11878;51.774;7.220;2023-05-24T06:58:05;11.10;99.90
23411;DHT22;11878;51.774;7.220;2023-05-24T07:01:07;11.20;99.90
23411;DHT22;11878;51.774;7.220;2023-05-24T07:04:09;12.30;99.90
23411;DHT22;11878;51.774;7.220;2023-05-24T07:07:11;11.20;99.90
23411;DHT22;11878;51.774;7.220;2023-05-24T07:10:15;11.30;99.90
23411;DHT22;11878;51.774;7.220;2023-05-24T07:13:17;11.30;99.90
23411;DHT22;11878;51.774;7.220;2023-05-24T07:16:18;11.80;99.90
23411;DHT22;11878;51.774;7.220;2023-05-24T07:19:20;11.90;99.90
23411;DHT22;11878;51.774;7.220;2023-05-24T07:22:24;11.40;99.90
23411;DHT22;11878;51.774;7.220;2023-05-24T07:25:28;11.50;99.90
23411;DHT22;11878;51.774;7.220;2023-05-24T07:28:30;11.60;99.90
23411;DHT22;11878;51.774;7.220;2023-05-24T07:31:32;11.80;99.90
23411;DHT22;11878;51.774;7.220;2023-05-24T07:34:35;11.50;99.90
23411;DHT22;11878;51.774;7.220;2023-05-24T07:37:40;11.40;99.90
23411;DHT22;11878;51.774;7.220;2023-05-24T07:40:43;11.80;99.90
23411;DHT22;11878;51.774;7.220;2023-05-24T07:43:45;11.50;99.90
23411;DHT22;11878;51.774;7.220;2023-05-24T07:46:47;11.60;99.90
23411;DHT22;11878;51.774;7.220;2023-05-24T07:49:49;11.80;99.90
23411;DHT22;11878;51.774;7.220;2023-05-24T07:52:51;12.00;99.90
23411;DHT22;11878;51.774;7.220;2023-05-24T07:55:53;12.00;99.90
23411;DHT22;11878;51.774;7.220;2023-05-24T07:58:55;12.00;99.90
23411;DHT22;11878;51.774;7.220;2023-05-24T08:02:04;12.10;99.90
23411;DHT22;11878;51.774;7.220;2023-05-24T08:05:07;12.20;99.90
23411;DHT22;11878;51.774;7.220;2023-05-24T08:08:11;12.40;99.90
23411;DHT22;11878;51.774;7.220;2023-05-24T08:11:13;12.60;99.90
23411;DHT22;11878;51.774;7.220;2023-05-24T08:14:15;13.60;99.90
23411;DHT22;11878;51.774;7.220;2023-05-24T08:17:17;12.50;99.90
23411;DHT22;11878;51.774;7.220;2023-05-24T08:20:19;12.40;99.90
23411;DHT22;11878;51.774;7.220;2023-05-24T08:23:21;12.30;99.90
23411;DHT22;11878;51.774;7.220;2023-05-24T08:26:23;13.00;99.90
23411;DHT22;11878;51.774;7.220;2023-05-24T08:29:25;12.30;99.90
23411;DHT22;11878;51.774;7.220;2023-05-24T08:32:27;12.40;99.90
23411;DHT22;11878;51.774;7.220;2023-05-24T08:35:29;12.40;99.90
23411;DHT22;11878;51.774;7.220;2023-05-24T08:38:31;12.50;99.90
23411;DHT22;11878;51.774;7.220;2023-05-24T08:41:34;12.50;99.90
23411;DHT22;11878;51.774;7.220;2023-05-24T08:44:51;12.40;99.90
23411;DHT22;11878;51.774;7.220;2023-05-24T08:47:54;12.50;99.90
23411;DHT22;11878;51.774;7.220;2023-05-24T08:50:57;12.70;99.90
23411;DHT22;11878;51.774;7.220;2023-05-24T08:53:59;12.90;99.90
23411;DHT22;11878;51.774;7.220;2023-05-24T08:57:02;12.60;99.90
23411;DHT22;11878;51.774;7.220;2023-05-24T09:00:06;12.60;99.90
23411;DHT22;11878;51.774;7.220;2023-05-24T09:03:10;12.70;99.90
23411;DHT22;11878;51.774;7.220;2023-05-24T09:06:16;12.90;99.90
23411;DHT22;11878;51.774;7.220;2023-05-24T09:09:20;12.90;99.90
23411;DHT22;11878;51.774;7.220;2023-05-24T09:12:23;13.20;99.90
23411;DHT22;11878;51.774;7.220;2023-05-24T09:15:39;13.30;99.90
23411;DHT22;11878;51.774;7.220;2023-05-24T09:18:41;13.40;99.90
23411;DHT22;11878;51.774;7.220;2023-05-24T09:21:44;13.40;99.90
23411;DHT22;11878;51.774;7.220;2023-05-24T09:24:46;13.30;99.90
23411;DHT22;11878;51.774;7.220;2023-05-24T09:27:50;13.60;99.90
23411;DHT22;11878;51.774;7.220;2023-05-24T09:31:00;13.40;99.90
23411;DHT22;11878;51.774;7.220;2023-05-24T09:34:14;14.00;99.90
23411;DHT22;11878;51.774;7.220;2023-05-24T09:37:19;13.50;99.90
23411;DHT22;11878;51.774;7.220;2023-05-24T09:40:27;13.70;99.90
23411;DHT22;11878;51.774;7.220;2023-05-24T09:43:31;13.90;99.90
23411;DHT22;11878;51.774;7.220;2023-05-24T09:46:35;14.10;99.90
23411;DHT22;11878;51.774;7.220;2023-05-24T09:49:39;13.80;99.90
23411;DHT22;11878;51.774;7.220;2023-05-24T09:52:42;13.70;99.90
23411;DHT22;11878;51.774;7.220;2023-05-24T09:55:44;13.60;99.90
23411;DHT22;11878;51.774;7.220;2023-05-24T09:58:47;13.30;99.90
23411;DHT22;11878;51.774;7.220;2023-05-24T10:01:49;13.30;99.90
23411;DHT22;11878;51.774;7.220;2023-05-24T10:05:01;13.30;99.90
23411;DHT22;11878;51.774;7.220;2023-05-24T10:08:04;13.50;99.90
23411;DHT22;11878;51.774;7.220;2023-05-24T10:11:06;13.30;99.90
23411;DHT22;11878;51.774;7.220;2023-05-24T10:14:08;13.40;99.90
23411;DHT22;11878;51.774;7.220;2023-05-24T10:17:10;13.40;99.90
23411;DHT22;11878;51.774;7.220;2023-05-24T10:20:14;13.50;99.90
23411;DHT22;11878;51.774;7.220;2023-05-24T10:23:19;13.30;99.90
23411;DHT22;11878;51.774;7.220;2023-05-24T10:26:23;13.40;99.90
23411;DHT22;11878;51.774;7.220;2023-05-24T10:33:00;13.30;99.90
23411;DHT22;11878;51.774;7.220;2023-05-24T10:36:05;13.40;99.90
23411;DHT22;11878;51.774;7.220;2023-05-24T10:39:20;13.20;99.90
23411;DHT22;11878;51.774;7.220;2023-05-24T10:42:30;13.30;99.90
23411;DHT22;11878;51.774;7.220;2023-05-24T10:45:36;13.60;99.90
23411;DHT22;11878;51.774;7.220;2023-05-24T10:48:39;13.40;99.90
23411;DHT22;11878;51.774;7.220;2023-05-24T10:51:41;14.10;99.90
23411;DHT22;11878;51.774;7.220;2023-05-24T10:55:04;13.70;99.90
23411;DHT22;11878;51.774;7.220;2023-05-24T10:58:06;13.50;99.90
23411;DHT22;11878;51.774;7.220;2023-05-24T11:01:13;13.60;99.90
23411;DHT22;11878;51.774;7.220;2023-05-24T11:04:17;13.50;99.90
23411;DHT22;11878;51.774;7.220;2023-05-24T11:07:19;13.60;99.90
23411;DHT22;11878;51.774;7.220;2023-05-24T11:10:29;13.60;99.90
23411;DHT22;11878;51.774;7.220;2023-05-24T11:13:32;13.70;99.90
23411;DHT22;11878;51.774;7.220;2023-05-24T11:16:38;13.90;99.90
23411;DHT22;11878;51.774;7.220;2023-05-24T11:22:51;14.10;99.90
23411;DHT22;11878;51.774;7.220;2023-05-24T11:25:54;14.30;99.90
23411;DHT22;11878;51.774;7.220;2023-05-24T11:28:59;14.00;99.90
23411;DHT22;11878;51.774;7.220;2023-05-24T11:32:05;14.10;99.90
23411;DHT22;11878;51.774;7.220;2023-05-24T11:35:08;13.70;99.90
23411;DHT22;11878;51.774;7.220;2023-05-24T11:38:13;13.60;99.90
23411;DHT22;11878;51.774;7.220;2023-05-24T11:41:16;13.60;99.90
23411;DHT22;11878;51.774;7.220;2023-05-24T11:44:18;14.30;99.90
23411;DHT22;11878;51.774;7.220;2023-05-24T11:47:20;14.30;99.90
23411;DHT22;11878;51.774;7.220;2023-05-24T11:50:25;14.60;99.90
23411;DHT22;11878;51.774;7.220;2023-05-24T11:53:29;13.50;99.90
23411;DHT22;11878;51.774;7.220;2023-05-24T11:56:31;13.60;99.90
23411;DHT22;11878;51.774;7.220;2023-05-24T11:59:35;13.60;99.90
23411;DHT22;11878;51.774;7.220;2023-05-24T12:02:39;13.90;99.90
23411;DHT22;11878;51.774;7.220;2023-05-24T12:05:41;13.80;99.90
23411;DHT22;11878;51.774;7.220;2023-05-24T12:08:44;13.80;99.90
23411;DHT22;11878;51.774;7.220;2023-05-24T12:11:48;14.20;99.90
23411;DHT22;11878;51.774;7.220;2023-05-24T12:14:54;14.40;99.90
23411;DHT22;11878;51.774;7.220;2023-05-24T12:17:58;14.30;99.90
23411;DHT22;11878;51.774;7.220;2023-05-24T12:20:59;14.70;99.90
23411;DHT22;11878;51.774;7.220;2023-05-24T12:24:13;14.70;99.90
23411;DHT22;11878;51.774;7.220;2023-05-24T12:27:15;14.80;99.90
23411;DHT22;11878;51.774;7.220;2023-05-24T12:30:24;14.80;99.90
23411;DHT22;11878;51.774;7.220;2023-05-24T12:33:26;14.80;99.90
23411;DHT22;11878;51.774;7.220;2023-05-24T12:36:29;14.60;99.90
23411;DHT22;11878;51.774;7.220;2023-05-24T12:39:31;14.60;99.90
23411;DHT22;11878;51.774;7.220;2023-05-24T12:42:36;14.60;99.90
23411;DHT22;11878;51.774;7.220;2023-05-24T12:45:37;14.40;99.90
23411;DHT22;11878;51.774;7.220;2023-05-24T12:48:39;14.40;99.90
23411;DHT22;11878;51.774;7.220;2023-05-24T12:51:41;14.10;99.90
23411;DHT22;11878;51.774;7.220;2023-05-24T12:54:44;14.30;99.90
23411;DHT22;11878;51.774;7.220;2023-05-24T12:57:47;14.40;99.90
23411;DHT22;11878;51.774;7.220;2023-05-24T13:00:55;14.40;99.90
23411;DHT22;11878;51.774;7.220;2023-05-24T13:03:57;14.30;99.90
23411;DHT22;11878;51.774;7.220;2023-05-24T13:07:00;14.60;99.90
23411;DHT22;11878;51.774;7.220;2023-05-24T13:10:07;14.80;99.90
23411;DHT22;11878;51.774;7.220;2023-05-24T13:13:09;14.40;99.90
23411;DHT22;11878;51.774;7.220;2023-05-24T13:16:11;14.50;99.90
23411;DHT22;11878;51.774;7.220;2023-05-24T13:19:14;14.60;99.90
23411;DHT22;11878;51.774;7.220;2023-05-24T13:22:16;14.60;99.90
23411;DHT22;11878;51.774;7.220;2023-05-24T13:25:18;14.60;99.90
23411;DHT22;11878;51.774;7.220;2023-05-24T13:28:23;14.50;99.90
23411;DHT22;11878;51.774;7.220;2023-05-24T13:31:24;14.90;99.90
23411;DHT22;11878;51.774;7.220;2023-05-24T13:34:27;14.80;99.90
23411;DHT22;11878;51.774;7.220;2023-05-24T13:37:29;14.80;99.90
23411;DHT22;11878;51.774;7.220;2023-05-24T13:40:32;14.80;99.90
23411;DHT22;11878;51.774;7.220;2023-05-24T13:43:33;14.80;99.90
23411;DHT22;11878;51.774;7.220;2023-05-24T13:46:36;14.80;99.90
23411;DHT22;11878;51.774;7.220;2023-05-24T13:49:38;14.70;99.90
23411;DHT22;11878;51.774;7.220;2023-05-24T13:52:40;15.50;99.90
23411;DHT22;11878;51.774;7.220;2023-05-24T13:55:42;14.60;99.90
23411;DHT22;11878;51.774;7.220;2023-05-24T13:58:44;15.40;99.90
23411;DHT22;11878;51.774;7.220;2023-05-24T14:01:46;15.60;99.90
23411;DHT22;11878;51.774;7.220;2023-05-24T14:04:48;14.90;99.90
23411;DHT22;11878;51.774;7.220;2023-05-24T14:07:50;15.20;99.90
23411;DHT22;11878;51.774;7.220;2023-05-24T14:10:52;15.20;99.90
23411;DHT22;11878;51.774;7.220;2023-05-24T14:13:54;16.10;99.90
23411;DHT22;11878;51.774;7.220;2023-05-24T14:17:17;15.50;99.90
23411;DHT22;11878;51.774;7.220;2023-05-24T14:20:21;15.20;99.90
23411;DHT22;11878;51.774;7.220;2023-05-24T14:23:23;15.30;99.90
23411;DHT22;11878;51.774;7.220;2023-05-24T14:26:25;15.20;99.90
23411;DHT22;11878;51.774;7.220;2023-05-24T14:29:27;15.20;99.90
23411;DHT22;11878;51.774;7.220;2023-05-24T14:32:29;15.50;99.90
23411;DHT22;11878;51.774;7.220;2023-05-24T14:35:31;15.40;99.90
23411;DHT22;11878;51.774;7.220;2023-05-24T14:38:39;15.70;99.90
23411;DHT22;11878;51.774;7.220;2023-05-24T14:41:40;16.00;99.90
23411;DHT22;11878;51.774;7.220;2023-05-24T14:44:42;15.90;99.90
23411;DHT22;11878;51.774;7.220;2023-05-24T14:47:44;15.50;99.90
23411;DHT22;11878;51.774;7.220;2023-05-24T14:50:46;15.50;99.90
23411;DHT22;11878;51.774;7.220;2023-05-24T14:53:48;15.30;99.90
23411;DHT22;11878;51.774;7.220;2023-05-24T14:56:50;15.50;99.90
23411;DHT22;11878;51.774;7.220;2023-05-24T14:59:52;15.30;99.90
23411;DHT22;11878;51.774;7.220;2023-05-24T15:02:54;15.20;99.90
23411;DHT22;11878;51.774;7.220;2023-05-24T15:05:56;15.20;99.90
23411;DHT22;11878;51.774;7.220;2023-05-24T15:08:58;15.30;99.90
23411;DHT22;11878;51.774;7.220;2023-05-24T15:12:01;15.70;99.90
23411;DHT22;11878;51.774;7.220;2023-05-24T15:15:03;16.10;99.90
23411;DHT22;11878;51.774;7.220;2023-05-24T15:18:07;15.50;99.90
23411;DHT22;11878;51.774;7.220;2023-05-24T15:21:10;16.00;99.90
23411;DHT22;11878;51.774;7.220;2023-05-24T15:24:12;16.50;99.90
23411;DHT22;11878;51.774;7.220;2023-05-24T15:27:15;15.50;99.90
23411;DHT22;11878;51.774;7.220;2023-05-24T15:30:20;15.40;99.90
23411;DHT22;11878;51.774;7.220;2023-05-24T15:33:24;15.30;99.90
23411;DHT22;11878;51.774;7.220;2023-05-24T15:36:30;15.40;99.90
23411;DHT22;11878;51.774;7.220;2023-05-24T15:39:33;15.50;99.90
23411;DHT22;11878;51.774;7.220;2023-05-24T15:42:35;16.40;99.90
23411;DHT22;11878;51.774;7.220;2023-05-24T15:45:37;16.40;99.90
23411;DHT22;11878;51.774;7.220;2023-05-24T15:48:39;16.60;99.90
23411;DHT22;11878;51.774;7.220;2023-05-24T15:51:41;16.00;99.90
23411;DHT22;11878;51.774;7.220;2023-05-24T15:54:49;16.30;99.90
23411;DHT22;11878;51.774;7.220;2023-05-24T15:57:51;15.70;99.90
23411;DHT22;11878;51.774;7.220;2023-05-24T16:00:53;16.20;99.90
23411;DHT22;11878;51.774;7.220;2023-05-24T16:03:55;15.80;99.90
23411;DHT22;11878;51.774;7.220;2023-05-24T16:06:57;16.30;99.90
23411;DHT22;11878;51.774;7.220;2023-05-24T16:09:59;16.30;99.90
23411;DHT22;11878;51.774;7.220;2023-05-24T16:13:00;16.20;99.90
23411;DHT22;11878;51.774;7.220;2023-05-24T16:16:03;16.20;99.90
23411;DHT22;11878;51.774;7.220;2023-05-24T16:19:05;16.20;99.90
23411;DHT22;11878;51.774;7.220;2023-05-24T16:22:10;16.20;99.50
23411;DHT22;11878;51.774;7.220;2023-05-24T16:25:12;16.30;99.90
23411;DHT22;11878;51.774;7.220;2023-05-24T16:28:14;16.00;99.70
23411;DHT22;11878;51.774;7.220;2023-05-24T16:31:16;16.00;99.90
23411;DHT22;11878;51.774;7.220;2023-05-24T16:34:20;15.80;99.90
23411;DHT22;11878;51.774;7.220;2023-05-24T16:37:27;15.60;99.90
23411;DHT22;11878;51.774;7.220;2023-05-24T16:40:29;15.60;99.90
23411;DHT22;11878;51.774;7.220;2023-05-24T16:43:32;16.60;99.90
23411;DHT22;11878;51.774;7.220;2023-05-24T16:46:37;15.40;99.90
23411;DHT22;11878;51.774;7.220;2023-05-24T16:49:39;15.90;99.90
23411;DHT22;11878;51.774;7.220;2023-05-24T16:52:41;15.40;99.90
23411;DHT22;11878;51.774;7.220;2023-05-24T16:55:43;15.50;99.90
23411;DHT22;11878;51.774;7.220;2023-05-24T16:58:45;15.20;99.90
23411;DHT22;11878;51.774;7.220;2023-05-24T17:01:47;15.10;99.90
23411;DHT22;11878;51.774;7.220;2023-05-24T17:04:51;15.30;99.90
23411;DHT22;11878;51.774;7.220;2023-05-24T17:07:54;15.20;99.90
23411;DHT22;11878;51.774;7.220;2023-05-24T17:10:56;15.00;99.90
23411;DHT22;11878;51.774;7.220;2023-05-24T17:13:58;14.90;99.90
23411;DHT22;11878;51.774;7.220;2023-05-24T17:17:00;14.90;99.90
23411;DHT22;11878;51.774;7.220;2023-05-24T17:20:04;15.00;99.90
23411;DHT22;11878;51.774;7.220;2023-05-24T17:23:06;15.10;99.90
23411;DHT22;11878;51.774;7.220;2023-05-24T17:26:08;16.60;99.90
23411;DHT22;11878;51.774;7.220;2023-05-24T17:29:10;15.60;99.90
23411;DHT22;11878;51.774;7.220;2023-05-24T17:32:12;15.50;99.90
23411;DHT22;11878;51.774;7.220;2023-05-24T17:35:14;15.40;99.90
23411;DHT22;11878;51.774;7.220;2023-05-24T17:38:16;15.40;99.90
23411;DHT22;11878;51.774;7.220;2023-05-24T17:41:19;15.30;99.90
23411;DHT22;11878;51.774;7.220;2023-05-24T17:44:20;15.60;99.90
23411;DHT22;11878;51.774;7.220;2023-05-24T17:47:22;15.30;99.90
23411;DHT22;11878;51.774;7.220;2023-05-24T17:50:24;15.30;99.90
23411;DHT22;11878;51.774;7.220;2023-05-24T17:53:27;15.30;99.90
23411;DHT22;11878;51.774;7.220;2023-05-24T17:56:34;15.20;99.90
23411;DHT22;11878;51.774;7.220;2023-05-24T17:59:36;15.20;99.90
23411;DHT22;11878;51.774;7.220;2023-05-24T18:02:39;15.70;99.90
23411;DHT22;11878;51.774;7.220;2023-05-24T18:05:42;15.10;99.90
23411;DHT22;11878;51.774;7.220;2023-05-24T18:08:44;15.10;99.90
23411;DHT22;11878;51.774;7.220;2023-05-24T18:11:46;14.90;99.90
23411;DHT22;11878;51.774;7.220;2023-05-24T18:14:48;15.90;99.90
23411;DHT22;11878;51.774;7.220;2023-05-24T18:17:50;15.20;99.90
23411;DHT22;11878;51.774;7.220;2023-05-24T18:20:52;15.70;99.90
23411;DHT22;11878;51.774;7.220;2023-05-24T18:23:54;15.00;99.90
23411;DHT22;11878;51.774;7.220;2023-05-24T18:26:56;14.50;99.90
23411;DHT22;11878;51.774;7.220;2023-05-24T18:29:58;14.50;99.90
23411;DHT22;11878;51.774;7.220;2023-05-24T18:33:00;15.60;99.90
23411;DHT22;11878;51.774;7.220;2023-05-24T18:36:08;14.40;99.90
23411;DHT22;11878;51.774;7.220;2023-05-24T18:39:10;14.40;99.90
23411;DHT22;11878;51.774;7.220;2023-05-24T18:42:12;14.50;99.90
23411;DHT22;11878;51.774;7.220;2023-05-24T18:45:14;14.20;99.90
23411;DHT22;11878;51.774;7.220;2023-05-24T18:48:16;14.30;99.90
23411;DHT22;11878;51.774;7.220;2023-05-24T18:51:18;14.40;99.90
23411;DHT22;11878;51.774;7.220;2023-05-24T18:54:20;14.20;99.90
23411;DHT22;11878;51.774;7.220;2023-05-24T18:57:22;14.20;99.90
23411;DHT22;11878;51.774;7.220;2023-05-24T19:00:25;15.20;99.90
23411;DHT22;11878;51.774;7.220;2023-05-24T19:03:27;14.40;99.90
23411;DHT22;11878;51.774;7.220;2023-05-24T19:06:29;14.00;99.90
23411;DHT22;11878;51.774;7.220;2023-05-24T19:09:31;14.00;99.90
23411;DHT22;11878;51.774;7.220;2023-05-24T19:12:34;14.00;99.90
23411;DHT22;11878;51.774;7.220;2023-05-24T19:15:36;14.00;99.90
23411;DHT22;11878;51.774;7.220;2023-05-24T19:18:38;14.80;99.90
23411;DHT22;11878;51.774;7.220;2023-05-24T19:21:40;14.80;99.90
23411;DHT22;11878;51.774;7.220;2023-05-24T19:24:42;14.00;99.90
23411;DHT22;11878;51.774;7.220;2023-05-24T19:27:44;13.80;99.90
23411;DHT22;11878;51.774;7.220;2023-05-24T19:31:00;14.00;99.90
23411;DHT22;11878;51.774;7.220;2023-05-24T19:34:03;13.60;99.90
23411;DHT22;11878;51.774;7.220;2023-05-24T19:37:04;13.60;99.90
23411;DHT22;11878;51.774;7.220;2023-05-24T19:40:07;13.50;99.90
23411;DHT22;11878;51.774;7.220;2023-05-24T19:43:09;13.50;99.90
23411;DHT22;11878;51.774;7.220;2023-05-24T19:46:12;13.50;99.90
23411;DHT22;11878;51.774;7.220;2023-05-24T19:49:15;13.50;99.90